sensor_id;sensor_type;location;lat;lon;timestamp;pressure;altitude;pressure_sealevel;temperature;humidity
59487;BME280;45298;54.918;73.504;2022-10-16T00:01:49;100690.44;;;7.56;76.24
59487;BME280;45298;54.918;73.504;2022-10-16T00:04:18;100672.34;;;7.47;75.95
59487;BME280;45298;54.918;73.504;2022-10-16T00:06:47;100634.50;;;7.24;76.03
59487;BME280;45298;54.918;73.504;2022-10-16T00:09:16;100661.97;;;7.43;76.02
59487;BME280;45298;54.918;73.504;2022-10-16T00:11:45;100675.53;;;7.55;75.28
59487;BME280;45298;54.918;73.504;2022-10-16T00:14:15;100680.66;;;7.60;75.02
59487;BME280;45298;54.918;73.504;2022-10-16T00:16:44;100654.00;;;7.44;74.99
59487;BME280;45298;54.918;73.504;2022-10-16T00:19:13;100693.56;;;7.68;75.29
59487;BME280;45298;54.918;73.504;2022-10-16T00:21:42;100704.00;;;7.71;74.57
59487;BME280;45298;54.918;73.504;2022-10-16T00:24:11;100673.97;;;7.51;74.86
59487;BME280;45298;54.918;73.504;2022-10-16T00:26:40;100703.38;;;7.64;74.32
59487;BME280;45298;54.918;73.504;2022-10-16T00:29:09;100640.81;;;7.20;74.95
59487;BME280;45298;54.918;73.504;2022-10-16T00:31:38;100666.97;;;7.26;74.66
59487;BME280;45298;54.918;73.504;2022-10-16T00:34:08;100692.16;;;7.35;75.27
59487;BME280;45298;54.918;73.504;2022-10-16T00:36:37;100694.88;;;7.34;74.84
59487;BME280;45298;54.918;73.504;2022-10-16T00:39:06;100676.72;;;7.24;75.02
59487;BME280;45298;54.918;73.504;2022-10-16T00:41:35;100661.81;;;7.23;74.69
59487;BME280;45298;54.918;73.504;2022-10-16T00:44:44;100681.94;;;7.26;74.19
59487;BME280;45298;54.918;73.504;2022-10-16T00:47:22;100658.84;;;7.09;74.95
59487;BME280;45298;54.918;73.504;2022-10-16T00:50:00;100670.88;;;7.16;74.29
59487;BME280;45298;54.918;73.504;2022-10-16T00:52:31;100647.06;;;6.95;74.74
59487;BME280;45298;54.918;73.504;2022-10-16T00:55:02;100669.63;;;7.03;74.28
59487;BME280;45298;54.918;73.504;2022-10-16T00:57:32;100662.06;;;6.93;74.22
59487;BME280;45298;54.918;73.504;2022-10-16T01:00:05;100635.69;;;6.70;73.56
59487;BME280;45298;54.918;73.504;2022-10-16T01:02:34;100691.94;;;6.94;73.96
59487;BME280;45298;54.918;73.504;2022-10-16T01:05:04;100677.59;;;6.77;74.11
59487;BME280;45298;54.918;73.504;2022-10-16T01:07:43;100693.13;;;6.85;73.58
59487;BME280;45298;54.918;73.504;2022-10-16T01:13:18;100696.13;;;6.74;73.15
59487;BME280;45298;54.918;73.504;2022-10-16T01:16:04;100684.22;;;6.64;73.51
59487;BME280;45298;54.918;73.504;2022-10-16T01:21:16;100676.31;;;6.64;73.33
59487;BME280;45298;54.918;73.504;2022-10-16T01:24:15;100684.50;;;6.80;73.58
59487;BME280;45298;54.918;73.504;2022-10-16T01:29:52;100694.84;;;6.86;73.26
59487;BME280;45298;54.918;73.504;2022-10-16T01:35:00;100673.28;;;6.75;72.61
59487;BME280;45298;54.918;73.504;2022-10-16T01:40:15;100670.31;;;6.84;72.30
59487;BME280;45298;54.918;73.504;2022-10-16T01:42:52;100672.84;;;6.87;72.29
59487;BME280;45298;54.918;73.504;2022-10-16T01:45:26;100658.84;;;6.85;72.33
59487;BME280;45298;54.918;73.504;2022-10-16T01:47:58;100581.31;;;6.42;72.22
59487;BME280;45298;54.918;73.504;2022-10-16T01:50:29;100661.16;;;6.94;71.79
59487;BME280;45298;54.918;73.504;2022-10-16T01:53:01;100673.19;;;7.02;71.88
59487;BME280;45298;54.918;73.504;2022-10-16T01:55:36;100667.09;;;7.00;71.84
59487;BME280;45298;54.918;73.504;2022-10-16T01:58:07;100661.00;;;6.98;70.88
59487;BME280;45298;54.918;73.504;2022-10-16T02:00:39;100646.09;;;6.96;71.64
59487;BME280;45298;54.918;73.504;2022-10-16T02:03:11;100615.28;;;6.75;71.07
59487;BME280;45298;54.918;73.504;2022-10-16T02:05:46;100679.88;;;7.10;70.92
59487;BME280;45298;54.918;73.504;2022-10-16T02:08:15;100670.13;;;7.13;71.31
59487;BME280;45298;54.918;73.504;2022-10-16T02:10:44;100647.06;;;6.95;70.60
59487;BME280;45298;54.918;73.504;2022-10-16T02:15:48;100663.13;;;7.11;70.72
59487;BME280;45298;54.918;73.504;2022-10-16T02:18:20;100669.91;;;7.19;70.68
59487;BME280;45298;54.918;73.504;2022-10-16T02:21:08;100665.47;;;7.19;70.75
59487;BME280;45298;54.918;73.504;2022-10-16T02:23:58;100663.44;;;7.28;69.99
59487;BME280;45298;54.918;73.504;2022-10-16T02:27:01;100652.91;;;7.26;69.03
59487;BME280;45298;54.918;73.504;2022-10-16T02:29:27;100595.94;;;6.98;70.28
59487;BME280;45298;54.918;73.504;2022-10-16T02:31:59;100648.31;;;7.31;69.85
59487;BME280;45298;54.918;73.504;2022-10-16T02:34:32;100599.91;;;7.10;69.29
59487;BME280;45298;54.918;73.504;2022-10-16T02:37:03;100641.81;;;7.40;69.54
59487;BME280;45298;54.918;73.504;2022-10-16T02:39:34;100652.16;;;7.46;69.59
59487;BME280;45298;54.918;73.504;2022-10-16T02:42:03;100651.16;;;7.49;69.08
59487;BME280;45298;54.918;73.504;2022-10-16T02:44:31;100623.34;;;7.40;68.75
59487;BME280;45298;54.918;73.504;2022-10-16T02:47:00;100655.09;;;7.61;68.51
59487;BME280;45298;54.918;73.504;2022-10-16T02:49:29;100643.72;;;7.59;67.73
59487;BME280;45298;54.918;73.504;2022-10-16T02:51:58;100671.81;;;7.83;68.00
59487;BME280;45298;54.918;73.504;2022-10-16T02:54:27;100652.63;;;7.78;66.67
59487;BME280;45298;54.918;73.504;2022-10-16T02:56:56;100642.81;;;7.82;67.82
59487;BME280;45298;54.918;73.504;2022-10-16T02:59:25;100654.66;;;7.94;67.39
59487;BME280;45298;54.918;73.504;2022-10-16T03:01:54;100664.47;;;8.12;67.28
59487;BME280;45298;54.918;73.504;2022-10-16T03:04:23;100642.69;;;8.06;67.37
59487;BME280;45298;54.918;73.504;2022-10-16T03:06:52;100651.09;;;8.15;67.67
59487;BME280;45298;54.918;73.504;2022-10-16T03:09:21;100647.53;;;8.16;67.25
59487;BME280;45298;54.918;73.504;2022-10-16T03:11:50;100645.56;;;8.22;67.87
59487;BME280;45298;54.918;73.504;2022-10-16T03:14:20;100643.00;;;8.20;68.31
59487;BME280;45298;54.918;73.504;2022-10-16T03:16:49;100659.00;;;8.38;67.82
59487;BME280;45298;54.918;73.504;2022-10-16T03:19:18;100633.75;;;8.30;67.38
59487;BME280;45298;54.918;73.504;2022-10-16T03:21:46;100594.97;;;8.10;66.83
59487;BME280;45298;54.918;73.504;2022-10-16T03:24:15;100656.56;;;8.54;66.97
59487;BME280;45298;54.918;73.504;2022-10-16T03:26:44;100639.13;;;8.50;68.34
59487;BME280;45298;54.918;73.504;2022-10-16T03:29:13;100633.63;;;8.54;68.02
59487;BME280;45298;54.918;73.504;2022-10-16T03:31:42;100587.69;;;8.36;67.44
59487;BME280;45298;54.918;73.504;2022-10-16T03:34:11;100634.78;;;8.68;67.86
59487;BME280;45298;54.918;73.504;2022-10-16T03:36:39;100654.34;;;8.84;68.01
59487;BME280;45298;54.918;73.504;2022-10-16T03:39:08;100654.06;;;8.90;66.93
59487;BME280;45298;54.918;73.504;2022-10-16T03:41:38;100628.91;;;8.82;66.58
59487;BME280;45298;54.918;73.504;2022-10-16T03:44:07;100652.53;;;9.05;66.03
59487;BME280;45298;54.918;73.504;2022-10-16T03:46:36;100644.94;;;9.17;66.43
59487;BME280;45298;54.918;73.504;2022-10-16T03:49:05;100635.69;;;9.26;65.69
59487;BME280;45298;54.918;73.504;2022-10-16T03:51:36;100625.66;;;9.32;64.30
59487;BME280;45298;54.918;73.504;2022-10-16T03:54:05;100611.91;;;9.43;63.73
59487;BME280;45298;54.918;73.504;2022-10-16T03:56:35;100585.69;;;9.38;63.79
59487;BME280;45298;54.918;73.504;2022-10-16T03:59:04;100609.81;;;9.69;62.81
59487;BME280;45298;54.918;73.504;2022-10-16T04:01:33;100619.72;;;9.83;62.29
59487;BME280;45298;54.918;73.504;2022-10-16T04:04:03;100630.47;;;9.97;61.61
59487;BME280;45298;54.918;73.504;2022-10-16T04:06:32;100620.91;;;9.95;61.04
59487;BME280;45298;54.918;73.504;2022-10-16T04:09:01;100615.59;;;9.95;60.96
59487;BME280;45298;54.918;73.504;2022-10-16T04:11:31;100642.88;;;10.15;60.78
59487;BME280;45298;54.918;73.504;2022-10-16T04:14:00;100644.59;;;10.16;61.02
59487;BME280;45298;54.918;73.504;2022-10-16T04:16:29;100633.13;;;10.15;61.22
59487;BME280;45298;54.918;73.504;2022-10-16T04:18:58;100612.16;;;10.10;60.54
59487;BME280;45298;54.918;73.504;2022-10-16T04:21:27;100607.81;;;10.09;60.38
59487;BME280;45298;54.918;73.504;2022-10-16T04:23:59;100612.47;;;10.22;59.93
59487;BME280;45298;54.918;73.504;2022-10-16T04:26:28;100630.25;;;10.37;60.04
59487;BME280;45298;54.918;73.504;2022-10-16T04:28:57;100615.28;;;10.36;59.30
59487;BME280;45298;54.918;73.504;2022-10-16T04:31:27;100630.09;;;10.58;58.05
59487;BME280;45298;54.918;73.504;2022-10-16T04:33:56;100595.00;;;10.53;57.09
59487;BME280;45298;54.918;73.504;2022-10-16T04:36:25;100639.75;;;10.93;56.68
59487;BME280;45298;54.918;73.504;2022-10-16T04:38:56;100623.75;;;10.94;56.06
59487;BME280;45298;54.918;73.504;2022-10-16T04:41:25;100624.00;;;11.06;56.04
59487;BME280;45298;54.918;73.504;2022-10-16T04:43:53;100598.66;;;11.00;57.01
59487;BME280;45298;54.918;73.504;2022-10-16T04:46:23;100619.56;;;11.22;56.36
59487;BME280;45298;54.918;73.504;2022-10-16T04:48:52;100639.00;;;11.39;56.35
59487;BME280;45298;54.918;73.504;2022-10-16T04:51:22;100641.25;;;11.46;56.01
59487;BME280;45298;54.918;73.504;2022-10-16T04:53:51;100642.88;;;11.49;55.30
59487;BME280;45298;54.918;73.504;2022-10-16T04:56:21;100648.09;;;11.51;55.21
59487;BME280;45298;54.918;73.504;2022-10-16T04:58:51;100631.75;;;11.42;55.77
59487;BME280;45298;54.918;73.504;2022-10-16T05:01:20;100645.38;;;11.52;54.69
59487;BME280;45298;54.918;73.504;2022-10-16T05:03:48;100632.75;;;11.40;54.85
59487;BME280;45298;54.918;73.504;2022-10-16T05:06:17;100617.25;;;11.32;55.51
59487;BME280;45298;54.918;73.504;2022-10-16T05:08:45;100602.25;;;11.31;55.35
59487;BME280;45298;54.918;73.504;2022-10-16T05:11:14;100612.38;;;11.40;55.09
59487;BME280;45298;54.918;73.504;2022-10-16T05:13:43;100620.59;;;11.52;54.15
59487;BME280;45298;54.918;73.504;2022-10-16T05:16:11;100626.72;;;11.68;55.23
59487;BME280;45298;54.918;73.504;2022-10-16T05:18:40;100639.41;;;11.79;53.39
59487;BME280;45298;54.918;73.504;2022-10-16T05:21:09;100615.16;;;11.69;53.41
59487;BME280;45298;54.918;73.504;2022-10-16T05:23:38;100615.94;;;11.71;53.80
59487;BME280;45298;54.918;73.504;2022-10-16T05:26:07;100620.03;;;11.77;53.29
59487;BME280;45298;54.918;73.504;2022-10-16T05:28:36;100626.72;;;11.84;53.67
59487;BME280;45298;54.918;73.504;2022-10-16T05:31:06;100622.06;;;11.88;52.86
59487;BME280;45298;54.918;73.504;2022-10-16T05:33:36;100626.44;;;11.89;53.07
59487;BME280;45298;54.918;73.504;2022-10-16T05:36:08;100579.78;;;11.69;53.29
59487;BME280;45298;54.918;73.504;2022-10-16T05:38:37;100611.94;;;11.94;53.62
59487;BME280;45298;54.918;73.504;2022-10-16T05:41:07;100616.56;;;12.07;53.12
59487;BME280;45298;54.918;73.504;2022-10-16T05:43:36;100599.88;;;12.19;52.29
59487;BME280;45298;54.918;73.504;2022-10-16T05:46:07;100568.34;;;12.28;51.41
59487;BME280;45298;54.918;73.504;2022-10-16T05:48:36;100612.44;;;12.75;51.10
59487;BME280;45298;54.918;73.504;2022-10-16T05:51:07;100617.09;;;12.86;50.22
59487;BME280;45298;54.918;73.504;2022-10-16T05:53:38;100617.78;;;13.04;50.55
59487;BME280;45298;54.918;73.504;2022-10-16T05:56:10;100620.81;;;13.12;51.22
59487;BME280;45298;54.918;73.504;2022-10-16T05:58:41;100615.94;;;13.19;50.94
59487;BME280;45298;54.918;73.504;2022-10-16T06:01:17;100602.72;;;13.18;51.40
59487;BME280;45298;54.918;73.504;2022-10-16T06:03:47;100600.41;;;13.26;50.66
59487;BME280;45298;54.918;73.504;2022-10-16T06:06:18;100610.78;;;13.30;50.65
59487;BME280;45298;54.918;73.504;2022-10-16T06:08:49;100604.34;;;13.20;49.63
59487;BME280;45298;54.918;73.504;2022-10-16T06:11:21;100608.50;;;13.24;50.28
59487;BME280;45298;54.918;73.504;2022-10-16T06:14:01;100605.28;;;13.19;49.88
59487;BME280;45298;54.918;73.504;2022-10-16T06:16:31;100592.72;;;13.21;50.18
59487;BME280;45298;54.918;73.504;2022-10-16T06:19:00;100584.50;;;13.24;49.76
59487;BME280;45298;54.918;73.504;2022-10-16T06:21:29;100602.88;;;13.43;49.49
59487;BME280;45298;54.918;73.504;2022-10-16T06:23:58;100615.94;;;13.61;50.14
59487;BME280;45298;54.918;73.504;2022-10-16T06:26:29;100598.03;;;13.63;49.31
59487;BME280;45298;54.918;73.504;2022-10-16T06:28:59;100592.03;;;13.87;49.63
59487;BME280;45298;54.918;73.504;2022-10-16T06:31:29;100579.16;;;13.94;48.08
59487;BME280;45298;54.918;73.504;2022-10-16T06:34:00;100585.88;;;14.12;47.94
59487;BME280;45298;54.918;73.504;2022-10-16T06:36:29;100608.84;;;14.28;46.93
59487;BME280;45298;54.918;73.504;2022-10-16T06:38:59;100593.28;;;14.22;46.62
59487;BME280;45298;54.918;73.504;2022-10-16T06:41:27;100573.31;;;14.14;46.82
59487;BME280;45298;54.918;73.504;2022-10-16T06:44:01;100579.50;;;14.28;47.03
59487;BME280;45298;54.918;73.504;2022-10-16T06:46:30;100580.25;;;14.30;46.18
59487;BME280;45298;54.918;73.504;2022-10-16T06:49:00;100583.25;;;14.38;47.28
59487;BME280;45298;54.918;73.504;2022-10-16T06:51:29;100579.38;;;14.55;46.93
59487;BME280;45298;54.918;73.504;2022-10-16T06:54:03;100533.28;;;14.27;46.53
59487;BME280;45298;54.918;73.504;2022-10-16T06:56:33;100569.34;;;14.59;45.96
59487;BME280;45298;54.918;73.504;2022-10-16T06:59:02;100570.44;;;14.69;46.61
59487;BME280;45298;54.918;73.504;2022-10-16T07:01:33;100572.56;;;14.77;46.23
59487;BME280;45298;54.918;73.504;2022-10-16T07:04:02;100565.38;;;14.64;46.12
59487;BME280;45298;54.918;73.504;2022-10-16T07:06:32;100565.72;;;14.60;46.61
59487;BME280;45298;54.918;73.504;2022-10-16T07:09:05;100572.03;;;14.59;47.16
59487;BME280;45298;54.918;73.504;2022-10-16T07:11:35;100567.09;;;14.53;47.49
59487;BME280;45298;54.918;73.504;2022-10-16T07:14:08;100586.53;;;14.55;48.12
59487;BME280;45298;54.918;73.504;2022-10-16T07:16:40;100585.03;;;14.50;48.40
59487;BME280;45298;54.918;73.504;2022-10-16T07:19:09;100557.81;;;14.45;47.95
59487;BME280;45298;54.918;73.504;2022-10-16T07:21:40;100547.69;;;14.50;47.88
59487;BME280;45298;54.918;73.504;2022-10-16T07:24:16;100572.13;;;14.70;48.24
59487;BME280;45298;54.918;73.504;2022-10-16T07:26:45;100552.13;;;14.63;48.26
59487;BME280;45298;54.918;73.504;2022-10-16T07:29:20;100547.53;;;14.65;47.34
59487;BME280;45298;54.918;73.504;2022-10-16T07:31:49;100543.16;;;14.64;47.85
59487;BME280;45298;54.918;73.504;2022-10-16T07:34:20;100557.63;;;14.74;47.47
59487;BME280;45298;54.918;73.504;2022-10-16T07:36:52;100554.19;;;14.72;48.06
59487;BME280;45298;54.918;73.504;2022-10-16T07:39:22;100552.69;;;14.68;48.19
59487;BME280;45298;54.918;73.504;2022-10-16T07:41:51;100519.41;;;14.48;48.76
59487;BME280;45298;54.918;73.504;2022-10-16T07:44:20;100537.53;;;14.56;48.61
59487;BME280;45298;54.918;73.504;2022-10-16T07:46:49;100532.63;;;14.49;48.78
59487;BME280;45298;54.918;73.504;2022-10-16T07:49:18;100531.13;;;14.45;48.86
59487;BME280;45298;54.918;73.504;2022-10-16T07:51:48;100528.66;;;14.42;48.86
59487;BME280;45298;54.918;73.504;2022-10-16T07:54:17;100543.50;;;14.46;49.13
59487;BME280;45298;54.918;73.504;2022-10-16T07:56:46;100494.22;;;14.26;49.58
59487;BME280;45298;54.918;73.504;2022-10-16T07:59:15;100532.41;;;14.53;49.58
59487;BME280;45298;54.918;73.504;2022-10-16T08:01:45;100519.50;;;14.46;49.76
59487;BME280;45298;54.918;73.504;2022-10-16T08:04:14;100502.13;;;14.28;49.87
59487;BME280;45298;54.918;73.504;2022-10-16T08:06:43;100502.13;;;14.28;49.36
59487;BME280;45298;54.918;73.504;2022-10-16T08:09:12;100510.00;;;14.42;49.90
59487;BME280;45298;54.918;73.504;2022-10-16T08:11:41;100511.59;;;14.45;50.01
59487;BME280;45298;54.918;73.504;2022-10-16T08:14:10;100507.97;;;14.46;49.71
59487;BME280;45298;54.918;73.504;2022-10-16T08:16:39;100517.78;;;14.45;49.82
59487;BME280;45298;54.918;73.504;2022-10-16T08:19:08;100518.44;;;14.36;49.88
59487;BME280;45298;54.918;73.504;2022-10-16T08:21:36;100487.31;;;14.11;50.80
59487;BME280;45298;54.918;73.504;2022-10-16T08:24:05;100475.88;;;13.96;50.50
59487;BME280;45298;54.918;73.504;2022-10-16T08:26:34;100508.75;;;14.09;50.73
59487;BME280;45298;54.918;73.504;2022-10-16T08:29:04;100466.50;;;13.77;50.96
59487;BME280;45298;54.918;73.504;2022-10-16T08:31:33;100495.31;;;13.98;50.50
59487;BME280;45298;54.918;73.504;2022-10-16T08:34:02;100497.63;;;13.89;50.96
59487;BME280;45298;54.918;73.504;2022-10-16T08:36:31;100496.13;;;13.85;51.11
59487;BME280;45298;54.918;73.504;2022-10-16T08:39:00;100497.63;;;13.89;50.80
59487;BME280;45298;54.918;73.504;2022-10-16T08:47:17;100479.81;;;13.77;50.98
59487;BME280;45298;54.918;73.504;2022-10-16T08:50:02;100492.09;;;13.80;50.81
59487;BME280;45298;54.918;73.504;2022-10-16T08:52:40;100461.28;;;13.63;51.42
59487;BME280;45298;54.918;73.504;2022-10-16T08:58:02;100486.88;;;13.78;51.06
59487;BME280;45298;54.918;73.504;2022-10-16T09:00:39;100427.56;;;13.49;51.18
59487;BME280;45298;54.918;73.504;2022-10-16T09:03:30;100469.69;;;13.69;50.58
59487;BME280;45298;54.918;73.504;2022-10-16T09:14:37;100481.22;;;13.96;50.38
59487;BME280;45298;54.918;73.504;2022-10-16T09:19:53;100466.06;;;13.96;50.44
59487;BME280;45298;54.918;73.504;2022-10-16T09:22:27;100471.41;;;13.96;50.65
59487;BME280;45298;54.918;73.504;2022-10-16T09:25:04;100462.44;;;13.84;50.69
59487;BME280;45298;54.918;73.504;2022-10-16T09:27:39;100474.59;;;13.88;51.29
59487;BME280;45298;54.918;73.504;2022-10-16T09:30:14;100485.81;;;13.94;51.11
59487;BME280;45298;54.918;73.504;2022-10-16T09:32:47;100473.75;;;13.75;51.41
59487;BME280;45298;54.918;73.504;2022-10-16T09:35:31;100462.09;;;13.63;51.52
59487;BME280;45298;54.918;73.504;2022-10-16T09:38:01;100488.13;;;13.59;52.04
59487;BME280;45298;54.918;73.504;2022-10-16T09:40:33;100479.78;;;13.51;52.43
59487;BME280;45298;54.918;73.504;2022-10-16T09:46:03;100470.22;;;13.34;53.42
59487;BME280;45298;54.918;73.504;2022-10-16T09:48:49;100428.81;;;13.03;53.83
59487;BME280;45298;54.918;73.504;2022-10-16T09:51:27;100476.63;;;13.32;54.14
59487;BME280;45298;54.918;73.504;2022-10-16T09:54:11;100448.53;;;13.13;54.78
59487;BME280;45298;54.918;73.504;2022-10-16T09:56:41;100466.97;;;13.16;54.73
59487;BME280;45298;54.918;73.504;2022-10-16T09:59:19;100465.06;;;13.18;55.97
59487;BME280;45298;54.918;73.504;2022-10-16T10:01:50;100478.41;;;13.18;55.40
59487;BME280;45298;54.918;73.504;2022-10-16T10:04:21;100453.50;;;13.05;55.69
59487;BME280;45298;54.918;73.504;2022-10-16T10:06:52;100466.22;;;13.14;56.34
59487;BME280;45298;54.918;73.504;2022-10-16T10:12:03;100472.31;;;13.16;56.85
59487;BME280;45298;54.918;73.504;2022-10-16T10:17:12;100451.41;;;13.10;55.79
59487;BME280;45298;54.918;73.504;2022-10-16T10:19:44;100477.53;;;13.18;56.43
59487;BME280;45298;54.918;73.504;2022-10-16T10:30:28;100458.84;;;13.05;57.11
59487;BME280;45298;54.918;73.504;2022-10-16T10:46:47;100444.34;;;12.54;59.30
59487;BME280;45298;54.918;73.504;2022-10-16T10:55:08;100459.63;;;12.65;59.94
59487;BME280;45298;54.918;73.504;2022-10-16T10:58:06;100466.09;;;12.61;60.19
59487;BME280;45298;54.918;73.504;2022-10-16T11:07:41;100443.34;;;12.28;61.18
59487;BME280;45298;54.918;73.504;2022-10-16T11:09:47;100440.22;;;12.21;61.27
59487;BME280;45298;54.918;73.504;2022-10-16T11:12:25;100467.09;;;12.31;62.22
59487;BME280;45298;54.918;73.504;2022-10-16T11:21:17;100434.25;;;12.03;62.48
59487;BME280;45298;54.918;73.504;2022-10-16T11:23:59;100441.94;;;12.07;62.50
59487;BME280;45298;54.918;73.504;2022-10-16T11:26:34;100426.72;;;11.95;63.17
59487;BME280;45298;54.918;73.504;2022-10-16T11:29:05;100433.16;;;11.91;63.24
59487;BME280;45298;54.918;73.504;2022-10-16T11:31:50;100427.38;;;11.84;63.53
59487;BME280;45298;54.918;73.504;2022-10-16T11:39:30;100450.44;;;11.84;64.13
59487;BME280;45298;54.918;73.504;2022-10-16T11:53:03;100444.63;;;11.62;65.17
59487;BME280;45298;54.918;73.504;2022-10-16T11:55:41;100429.31;;;11.52;66.19
59487;BME280;45298;54.918;73.504;2022-10-16T12:01:35;100433.09;;;11.47;66.89
59487;BME280;45298;54.918;73.504;2022-10-16T12:04:38;100422.16;;;11.38;66.81
59487;BME280;45298;54.918;73.504;2022-10-16T12:07:08;100400.06;;;11.23;66.94
59487;BME280;45298;54.918;73.504;2022-10-16T12:09:38;100436.84;;;11.29;66.39
59487;BME280;45298;54.918;73.504;2022-10-16T12:18:21;100429.25;;;11.23;67.42
59487;BME280;45298;54.918;73.504;2022-10-16T12:20:57;100385.66;;;10.96;67.61
59487;BME280;45298;54.918;73.504;2022-10-16T12:23:46;100428.53;;;11.04;67.72
59487;BME280;45298;54.918;73.504;2022-10-16T12:26:28;100400.31;;;10.87;67.68
59487;BME280;45298;54.918;73.504;2022-10-16T12:29:14;100372.38;;;10.66;68.40
59487;BME280;45298;54.918;73.504;2022-10-16T12:31:47;100413.59;;;10.87;68.51
59487;BME280;45298;54.918;73.504;2022-10-16T12:34:36;100426.88;;;10.87;68.51
59487;BME280;45298;54.918;73.504;2022-10-16T12:39:55;100419.06;;;10.84;68.94
59487;BME280;45298;54.918;73.504;2022-10-16T12:44:58;100390.66;;;10.54;69.35
59487;BME280;45298;54.918;73.504;2022-10-16T12:50:00;100411.28;;;10.65;69.78
59487;BME280;45298;54.918;73.504;2022-10-16T12:52:38;100414.03;;;10.64;69.54
59487;BME280;45298;54.918;73.504;2022-10-16T12:55:19;100415.91;;;10.62;69.44
59487;BME280;45298;54.918;73.504;2022-10-16T12:58:26;100435.84;;;10.69;69.83
59487;BME280;45298;54.918;73.504;2022-10-16T13:01:37;100439.53;;;10.66;69.71
59487;BME280;45298;54.918;73.504;2022-10-16T13:07:21;100432.94;;;10.57;70.31
59487;BME280;45298;54.918;73.504;2022-10-16T13:10:10;100419.28;;;10.49;69.41
59487;BME280;45298;54.918;73.504;2022-10-16T13:23:49;100423.66;;;10.17;70.56
59487;BME280;45298;54.918;73.504;2022-10-16T13:26:47;100422.09;;;10.12;70.58
59487;BME280;45298;54.918;73.504;2022-10-16T13:29:18;100405.69;;;10.06;70.81
59487;BME280;45298;54.918;73.504;2022-10-16T13:31:48;100434.31;;;10.15;70.93
59487;BME280;45298;54.918;73.504;2022-10-16T13:34:20;100427.47;;;10.11;70.94
59487;BME280;45298;54.918;73.504;2022-10-16T13:36:52;100410.53;;;9.97;70.81
59487;BME280;45298;54.918;73.504;2022-10-16T13:39:29;100401.38;;;9.87;71.20
59487;BME280;45298;54.918;73.504;2022-10-16T13:42:06;100400.84;;;9.80;70.68
59487;BME280;45298;54.918;73.504;2022-10-16T13:44:44;100393.78;;;9.63;70.79
59487;BME280;45298;54.918;73.504;2022-10-16T13:47:21;100418.16;;;9.70;71.38
59487;BME280;45298;54.918;73.504;2022-10-16T13:52:34;100378.78;;;9.29;71.31
59487;BME280;45298;54.918;73.504;2022-10-16T13:55:15;100400.84;;;9.29;72.16
59487;BME280;45298;54.918;73.504;2022-10-16T13:57:46;100409.88;;;9.25;72.09
59487;BME280;45298;54.918;73.504;2022-10-16T14:00:33;100396.16;;;9.17;71.70
59487;BME280;45298;54.918;73.504;2022-10-16T14:03:05;100407.53;;;9.19;72.22
59487;BME280;45298;54.918;73.504;2022-10-16T14:05:35;100419.13;;;9.16;72.73
59487;BME280;45298;54.918;73.504;2022-10-16T14:08:03;100392.88;;;8.94;72.13
59487;BME280;45298;54.918;73.504;2022-10-16T14:10:33;100408.44;;;9.00;72.14
59487;BME280;45298;54.918;73.504;2022-10-16T14:13:06;100391.72;;;8.82;72.36
59487;BME280;45298;54.918;73.504;2022-10-16T14:15:36;100402.59;;;8.76;72.87
59487;BME280;45298;54.918;73.504;2022-10-16T14:18:05;100409.03;;;8.70;72.27
59487;BME280;45298;54.918;73.504;2022-10-16T14:20:34;100370.75;;;8.41;72.39
59487;BME280;45298;54.918;73.504;2022-10-16T14:23:18;100404.78;;;8.49;72.25
59487;BME280;45298;54.918;73.504;2022-10-16T14:25:48;100388.75;;;8.32;73.21
59487;BME280;45298;54.918;73.504;2022-10-16T14:28:22;100395.53;;;8.38;72.33
59487;BME280;45298;54.918;73.504;2022-10-16T14:30:54;100387.53;;;8.21;72.87
59487;BME280;45298;54.918;73.504;2022-10-16T14:33:32;100380.09;;;8.10;73.62
59487;BME280;45298;54.918;73.504;2022-10-16T14:36:11;100393.88;;;8.16;74.19
59487;BME280;45298;54.918;73.504;2022-10-16T14:38:48;100382.97;;;8.05;73.93
59487;BME280;45298;54.918;73.504;2022-10-16T14:41:21;100389.31;;;8.01;73.33
59487;BME280;45298;54.918;73.504;2022-10-16T14:43:56;100347.31;;;7.76;73.85
59487;BME280;45298;54.918;73.504;2022-10-16T14:46:35;100368.09;;;7.83;74.04
59487;BME280;45298;54.918;73.504;2022-10-16T14:49:16;100384.06;;;7.80;73.18
59487;BME280;45298;54.918;73.504;2022-10-16T14:51:47;100390.94;;;7.84;73.03
59487;BME280;45298;54.918;73.504;2022-10-16T14:54:18;100365.22;;;7.69;73.83
59487;BME280;45298;54.918;73.504;2022-10-16T14:56:56;100390.28;;;7.79;73.74
59487;BME280;45298;54.918;73.504;2022-10-16T14:59:35;100371.50;;;7.66;73.92
59487;BME280;45298;54.918;73.504;2022-10-16T15:04:49;100321.66;;;7.39;74.36
59487;BME280;45298;54.918;73.504;2022-10-16T15:07:18;100385.00;;;7.79;74.53
59487;BME280;45298;54.918;73.504;2022-10-16T15:09:47;100357.44;;;7.66;73.93
59487;BME280;45298;54.918;73.504;2022-10-16T15:12:16;100356.38;;;7.70;74.22
59487;BME280;45298;54.918;73.504;2022-10-16T15:14:46;100347.00;;;7.63;73.74
59487;BME280;45298;54.918;73.504;2022-10-16T15:17:14;100360.59;;;7.74;74.14
59487;BME280;45298;54.918;73.504;2022-10-16T15:19:48;100346.00;;;7.65;74.06
59487;BME280;45298;54.918;73.504;2022-10-16T15:22:17;100384.50;;;7.90;74.07
59487;BME280;45298;54.918;73.504;2022-10-16T15:24:46;100363.97;;;7.78;74.84
59487;BME280;45298;54.918;73.504;2022-10-16T15:27:15;100371.75;;;7.81;75.14
59487;BME280;45298;54.918;73.504;2022-10-16T15:29:45;100338.31;;;7.61;74.55
59487;BME280;45298;54.918;73.504;2022-10-16T15:32:13;100369.09;;;7.81;74.91